sensor_id;sensor_type;location;lat;lon;timestamp;P1;durP1;ratioP1;P2;durP2;ratioP2
13228;SDS011;6680;53.220;10.402;2023-08-17T00:02:13;4.80;;;2.27;;
13228;SDS011;6680;53.220;10.402;2023-08-17T00:04:40;4.00;;;2.27;;
13228;SDS011;6680;53.220;10.402;2023-08-17T00:07:07;3.40;;;2.30;;
13228;SDS011;6680;53.220;10.402;2023-08-17T00:09:33;7.10;;;2.40;;
13228;SDS011;6680;53.220;10.402;2023-08-17T00:12:00;2.70;;;2.17;;
13228;SDS011;6680;53.220;10.402;2023-08-17T00:14:28;3.53;;;2.20;;
13228;SDS011;6680;53.220;10.402;2023-08-17T00:16:55;5.13;;;2.60;;
13228;SDS011;6680;53.220;10.402;2023-08-17T00:19:22;3.13;;;2.43;;
13228;SDS011;6680;53.220;10.402;2023-08-17T00:21:49;2.33;;;2.10;;
13228;SDS011;6680;53.220;10.402;2023-08-17T00:24:17;2.77;;;2.17;;
13228;SDS011;6680;53.220;10.402;2023-08-17T00:26:44;5.90;;;2.30;;
13228;SDS011;6680;53.220;10.402;2023-08-17T00:29:10;4.60;;;2.20;;
13228;SDS011;6680;53.220;10.402;2023-08-17T00:31:38;3.40;;;1.93;;
13228;SDS011;6680;53.220;10.402;2023-08-17T00:34:05;6.47;;;1.97;;
13228;SDS011;6680;53.220;10.402;2023-08-17T00:36:31;2.40;;;1.97;;
13228;SDS011;6680;53.220;10.402;2023-08-17T00:38:58;5.63;;;2.23;;
13228;SDS011;6680;53.220;10.402;2023-08-17T00:41:25;2.10;;;1.93;;
13228;SDS011;6680;53.220;10.402;2023-08-17T00:43:53;2.80;;;2.17;;
13228;SDS011;6680;53.220;10.402;2023-08-17T00:46:20;2.50;;;2.30;;
13228;SDS011;6680;53.220;10.402;2023-08-17T00:48:49;3.00;;;2.20;;
13228;SDS011;6680;53.220;10.402;2023-08-17T00:51:16;3.33;;;2.43;;
13228;SDS011;6680;53.220;10.402;2023-08-17T00:53:45;2.50;;;2.30;;
13228;SDS011;6680;53.220;10.402;2023-08-17T00:56:12;2.33;;;2.13;;
13228;SDS011;6680;53.220;10.402;2023-08-17T00:58:38;3.20;;;2.37;;
13228;SDS011;6680;53.220;10.402;2023-08-17T01:01:05;4.70;;;2.40;;
13228;SDS011;6680;53.220;10.402;2023-08-17T01:03:32;5.13;;;2.30;;
13228;SDS011;6680;53.220;10.402;2023-08-17T01:06:02;3.63;;;2.37;;
13228;SDS011;6680;53.220;10.402;2023-08-17T01:08:29;3.60;;;2.07;;
13228;SDS011;6680;53.220;10.402;2023-08-17T01:10:57;4.77;;;1.93;;
13228;SDS011;6680;53.220;10.402;2023-08-17T01:13:31;2.93;;;2.47;;
13228;SDS011;6680;53.220;10.402;2023-08-17T01:16:05;3.43;;;2.50;;
13228;SDS011;6680;53.220;10.402;2023-08-17T01:18:35;4.33;;;2.30;;
13228;SDS011;6680;53.220;10.402;2023-08-17T01:21:06;3.03;;;1.97;;
13228;SDS011;6680;53.220;10.402;2023-08-17T01:23:37;4.10;;;2.00;;
13228;SDS011;6680;53.220;10.402;2023-08-17T01:26:04;2.43;;;2.20;;
13228;SDS011;6680;53.220;10.402;2023-08-17T01:28:30;2.90;;;2.17;;
13228;SDS011;6680;53.220;10.402;2023-08-17T01:30:58;3.03;;;1.93;;
13228;SDS011;6680;53.220;10.402;2023-08-17T01:33:28;2.30;;;2.10;;
13228;SDS011;6680;53.220;10.402;2023-08-17T01:36:01;2.13;;;2.00;;
13228;SDS011;6680;53.220;10.402;2023-08-17T01:38:33;2.33;;;2.13;;
13228;SDS011;6680;53.220;10.402;2023-08-17T01:41:03;3.70;;;2.50;;
13228;SDS011;6680;53.220;10.402;2023-08-17T01:43:31;7.57;;;2.13;;
13228;SDS011;6680;53.220;10.402;2023-08-17T01:45:59;4.60;;;2.23;;
13228;SDS011;6680;53.220;10.402;2023-08-17T01:48:26;2.60;;;2.40;;
13228;SDS011;6680;53.220;10.402;2023-08-17T01:50:52;4.77;;;2.17;;
13228;SDS011;6680;53.220;10.402;2023-08-17T01:53:19;5.80;;;2.50;;
13228;SDS011;6680;53.220;10.402;2023-08-17T01:55:46;2.23;;;2.03;;
13228;SDS011;6680;53.220;10.402;2023-08-17T01:58:14;2.30;;;2.10;;
13228;SDS011;6680;53.220;10.402;2023-08-17T02:00:41;2.20;;;2.00;;
13228;SDS011;6680;53.220;10.402;2023-08-17T02:03:08;3.13;;;1.90;;
13228;SDS011;6680;53.220;10.402;2023-08-17T02:05:34;3.40;;;2.40;;
13228;SDS011;6680;53.220;10.402;2023-08-17T02:08:01;3.97;;;2.07;;
13228;SDS011;6680;53.220;10.402;2023-08-17T02:10:27;3.10;;;2.00;;
13228;SDS011;6680;53.220;10.402;2023-08-17T02:12:54;2.63;;;2.23;;
13228;SDS011;6680;53.220;10.402;2023-08-17T02:15:22;3.40;;;2.10;;
13228;SDS011;6680;53.220;10.402;2023-08-17T02:17:49;3.90;;;2.00;;
13228;SDS011;6680;53.220;10.402;2023-08-17T02:20:15;2.83;;;1.80;;
13228;SDS011;6680;53.220;10.402;2023-08-17T02:22:42;2.77;;;1.87;;
13228;SDS011;6680;53.220;10.402;2023-08-17T02:25:09;3.77;;;1.97;;
13228;SDS011;6680;53.220;10.402;2023-08-17T02:27:35;2.47;;;2.00;;
13228;SDS011;6680;53.220;10.402;2023-08-17T02:30:02;2.40;;;2.20;;
13228;SDS011;6680;53.220;10.402;2023-08-17T02:32:30;2.77;;;2.50;;
13228;SDS011;6680;53.220;10.402;2023-08-17T02:34:57;2.90;;;2.10;;
13228;SDS011;6680;53.220;10.402;2023-08-17T02:37:24;5.93;;;1.97;;
13228;SDS011;6680;53.220;10.402;2023-08-17T02:39:50;2.97;;;2.10;;
13228;SDS011;6680;53.220;10.402;2023-08-17T02:42:17;2.40;;;2.20;;
13228;SDS011;6680;53.220;10.402;2023-08-17T02:44:44;2.67;;;2.10;;
13228;SDS011;6680;53.220;10.402;2023-08-17T02:47:11;2.70;;;2.30;;
13228;SDS011;6680;53.220;10.402;2023-08-17T02:49:38;5.63;;;2.40;;
13228;SDS011;6680;53.220;10.402;2023-08-17T02:52:05;2.50;;;2.20;;
13228;SDS011;6680;53.220;10.402;2023-08-17T02:54:32;3.80;;;2.47;;
13228;SDS011;6680;53.220;10.402;2023-08-17T02:56:59;2.20;;;2.00;;
13228;SDS011;6680;53.220;10.402;2023-08-17T02:59:25;5.07;;;2.67;;
13228;SDS011;6680;53.220;10.402;2023-08-17T03:01:53;5.40;;;2.30;;
13228;SDS011;6680;53.220;10.402;2023-08-17T03:04:19;3.23;;;2.10;;
13228;SDS011;6680;53.220;10.402;2023-08-17T03:06:47;4.03;;;2.63;;
13228;SDS011;6680;53.220;10.402;2023-08-17T03:09:14;4.60;;;2.20;;
13228;SDS011;6680;53.220;10.402;2023-08-17T03:11:41;4.43;;;2.60;;
13228;SDS011;6680;53.220;10.402;2023-08-17T03:14:07;2.87;;;2.40;;
13228;SDS011;6680;53.220;10.402;2023-08-17T03:16:34;5.13;;;2.33;;
13228;SDS011;6680;53.220;10.402;2023-08-17T03:19:01;3.33;;;2.10;;
13228;SDS011;6680;53.220;10.402;2023-08-17T03:21:27;4.83;;;2.67;;
13228;SDS011;6680;53.220;10.402;2023-08-17T03:23:55;2.33;;;2.13;;
13228;SDS011;6680;53.220;10.402;2023-08-17T03:26:22;3.43;;;2.30;;
13228;SDS011;6680;53.220;10.402;2023-08-17T03:28:48;4.00;;;2.50;;
13228;SDS011;6680;53.220;10.402;2023-08-17T03:31:15;3.20;;;2.30;;
13228;SDS011;6680;53.220;10.402;2023-08-17T03:33:42;4.43;;;2.53;;
13228;SDS011;6680;53.220;10.402;2023-08-17T03:36:08;4.57;;;2.50;;
13228;SDS011;6680;53.220;10.402;2023-08-17T03:38:35;5.10;;;2.50;;
13228;SDS011;6680;53.220;10.402;2023-08-17T03:41:05;3.83;;;2.43;;
13228;SDS011;6680;53.220;10.402;2023-08-17T03:43:32;5.20;;;2.80;;
13228;SDS011;6680;53.220;10.402;2023-08-17T03:45:58;2.87;;;2.37;;
13228;SDS011;6680;53.220;10.402;2023-08-17T03:48:25;3.37;;;2.43;;
13228;SDS011;6680;53.220;10.402;2023-08-17T03:50:52;3.87;;;2.30;;
13228;SDS011;6680;53.220;10.402;2023-08-17T03:53:20;3.87;;;2.60;;
13228;SDS011;6680;53.220;10.402;2023-08-17T03:55:47;3.30;;;2.60;;
13228;SDS011;6680;53.220;10.402;2023-08-17T03:58:15;3.33;;;2.50;;
13228;SDS011;6680;53.220;10.402;2023-08-17T04:00:42;2.43;;;2.20;;
13228;SDS011;6680;53.220;10.402;2023-08-17T04:03:14;3.87;;;2.70;;
13228;SDS011;6680;53.220;10.402;2023-08-17T04:05:41;4.53;;;2.77;;
13228;SDS011;6680;53.220;10.402;2023-08-17T04:08:07;5.57;;;2.90;;
13228;SDS011;6680;53.220;10.402;2023-08-17T04:10:34;2.87;;;2.67;;
13228;SDS011;6680;53.220;10.402;2023-08-17T04:13:01;5.30;;;2.73;;
13228;SDS011;6680;53.220;10.402;2023-08-17T04:15:29;2.57;;;2.37;;
13228;SDS011;6680;53.220;10.402;2023-08-17T04:17:56;5.20;;;2.60;;
13228;SDS011;6680;53.220;10.402;2023-08-17T04:20:22;3.83;;;2.30;;
13228;SDS011;6680;53.220;10.402;2023-08-17T04:22:50;2.67;;;2.37;;
13228;SDS011;6680;53.220;10.402;2023-08-17T04:25:17;4.57;;;3.00;;
13228;SDS011;6680;53.220;10.402;2023-08-17T04:27:44;4.17;;;3.00;;
13228;SDS011;6680;53.220;10.402;2023-08-17T04:30:11;5.57;;;2.90;;
13228;SDS011;6680;53.220;10.402;2023-08-17T04:32:40;9.00;;;3.33;;
13228;SDS011;6680;53.220;10.402;2023-08-17T04:35:07;4.80;;;3.30;;
13228;SDS011;6680;53.220;10.402;2023-08-17T04:37:34;4.93;;;3.33;;
13228;SDS011;6680;53.220;10.402;2023-08-17T04:40:01;4.07;;;2.40;;
13228;SDS011;6680;53.220;10.402;2023-08-17T04:42:28;5.20;;;3.57;;
13228;SDS011;6680;53.220;10.402;2023-08-17T04:44:54;6.20;;;2.73;;
13228;SDS011;6680;53.220;10.402;2023-08-17T04:47:21;3.67;;;2.97;;
13228;SDS011;6680;53.220;10.402;2023-08-17T04:49:49;3.17;;;2.77;;
13228;SDS011;6680;53.220;10.402;2023-08-17T04:52:16;4.90;;;3.40;;
13228;SDS011;6680;53.220;10.402;2023-08-17T04:54:42;4.93;;;3.33;;
13228;SDS011;6680;53.220;10.402;2023-08-17T04:57:09;6.13;;;3.00;;
13228;SDS011;6680;53.220;10.402;2023-08-17T04:59:36;3.60;;;2.90;;
13228;SDS011;6680;53.220;10.402;2023-08-17T05:02:02;8.73;;;3.23;;
13228;SDS011;6680;53.220;10.402;2023-08-17T05:04:29;4.80;;;3.40;;
13228;SDS011;6680;53.220;10.402;2023-08-17T05:06:58;3.13;;;2.53;;
13228;SDS011;6680;53.220;10.402;2023-08-17T05:09:26;7.73;;;3.00;;
13228;SDS011;6680;53.220;10.402;2023-08-17T05:11:53;4.47;;;2.90;;
13228;SDS011;6680;53.220;10.402;2023-08-17T05:14:20;4.03;;;3.37;;
13228;SDS011;6680;53.220;10.402;2023-08-17T05:16:47;4.10;;;3.70;;
13228;SDS011;6680;53.220;10.402;2023-08-17T05:19:14;4.37;;;3.97;;
13228;SDS011;6680;53.220;10.402;2023-08-17T05:21:40;6.67;;;4.00;;
13228;SDS011;6680;53.220;10.402;2023-08-17T05:24:08;8.33;;;3.90;;
13228;SDS011;6680;53.220;10.402;2023-08-17T05:26:35;4.03;;;3.63;;
13228;SDS011;6680;53.220;10.402;2023-08-17T05:29:01;6.20;;;4.00;;
13228;SDS011;6680;53.220;10.402;2023-08-17T05:31:28;4.00;;;3.63;;
13228;SDS011;6680;53.220;10.402;2023-08-17T05:33:55;4.57;;;3.90;;
13228;SDS011;6680;53.220;10.402;2023-08-17T05:36:22;5.23;;;4.07;;
13228;SDS011;6680;53.220;10.402;2023-08-17T05:38:48;4.57;;;3.20;;
13228;SDS011;6680;53.220;10.402;2023-08-17T05:41:16;3.27;;;2.93;;
13228;SDS011;6680;53.220;10.402;2023-08-17T05:43:43;4.30;;;3.40;;
13228;SDS011;6680;53.220;10.402;2023-08-17T05:46:09;3.40;;;3.10;;
13228;SDS011;6680;53.220;10.402;2023-08-17T05:48:36;4.67;;;2.93;;
13228;SDS011;6680;53.220;10.402;2023-08-17T05:51:03;6.17;;;3.10;;
13228;SDS011;6680;53.220;10.402;2023-08-17T05:53:29;4.30;;;2.73;;
13228;SDS011;6680;53.220;10.402;2023-08-17T05:55:56;4.23;;;2.90;;
13228;SDS011;6680;53.220;10.402;2023-08-17T05:58:24;6.37;;;3.07;;
13228;SDS011;6680;53.220;10.402;2023-08-17T06:00:51;6.17;;;3.37;;
13228;SDS011;6680;53.220;10.402;2023-08-17T06:03:17;3.13;;;2.83;;
13228;SDS011;6680;53.220;10.402;2023-08-17T06:05:44;7.20;;;2.80;;
13228;SDS011;6680;53.220;10.402;2023-08-17T06:08:10;2.97;;;2.70;;
13228;SDS011;6680;53.220;10.402;2023-08-17T06:10:37;3.17;;;2.70;;
13228;SDS011;6680;53.220;10.402;2023-08-17T06:13:04;5.20;;;2.47;;
13228;SDS011;6680;53.220;10.402;2023-08-17T06:15:32;2.73;;;2.50;;
13228;SDS011;6680;53.220;10.402;2023-08-17T06:17:58;3.90;;;2.20;;
13228;SDS011;6680;53.220;10.402;2023-08-17T06:20:25;6.93;;;2.10;;
13228;SDS011;6680;53.220;10.402;2023-08-17T06:22:52;2.50;;;1.80;;
13228;SDS011;6680;53.220;10.402;2023-08-17T06:25:18;1.93;;;1.83;;
13228;SDS011;6680;53.220;10.402;2023-08-17T06:27:45;2.30;;;2.10;;
13228;SDS011;6680;53.220;10.402;2023-08-17T06:30:14;1.80;;;1.70;;
13228;SDS011;6680;53.220;10.402;2023-08-17T06:32:42;4.47;;;2.00;;
13228;SDS011;6680;53.220;10.402;2023-08-17T06:35:09;2.70;;;2.20;;
13228;SDS011;6680;53.220;10.402;2023-08-17T06:37:36;2.57;;;1.80;;
13228;SDS011;6680;53.220;10.402;2023-08-17T06:40:03;2.50;;;2.10;;
13228;SDS011;6680;53.220;10.402;2023-08-17T06:42:32;3.17;;;2.00;;
13228;SDS011;6680;53.220;10.402;2023-08-17T06:44:58;3.43;;;1.90;;
13228;SDS011;6680;53.220;10.402;2023-08-17T06:47:25;4.37;;;2.63;;
13228;SDS011;6680;53.220;10.402;2023-08-17T06:49:54;2.80;;;2.23;;
13228;SDS011;6680;53.220;10.402;2023-08-17T06:52:22;2.00;;;1.90;;
13228;SDS011;6680;53.220;10.402;2023-08-17T06:54:49;2.93;;;2.40;;
13228;SDS011;6680;53.220;10.402;2023-08-17T06:57:15;2.60;;;2.30;;
13228;SDS011;6680;53.220;10.402;2023-08-17T06:59:42;1.80;;;1.70;;
13228;SDS011;6680;53.220;10.402;2023-08-17T07:02:10;3.80;;;2.47;;
13228;SDS011;6680;53.220;10.402;2023-08-17T07:04:37;2.40;;;2.20;;
13228;SDS011;6680;53.220;10.402;2023-08-17T07:07:05;2.90;;;1.80;;
13228;SDS011;6680;53.220;10.402;2023-08-17T07:09:32;2.27;;;2.10;;
13228;SDS011;6680;53.220;10.402;2023-08-17T07:11:58;2.20;;;2.00;;
13228;SDS011;6680;53.220;10.402;2023-08-17T07:14:25;2.50;;;2.30;;
13228;SDS011;6680;53.220;10.402;2023-08-17T07:16:53;1.83;;;1.73;;
13228;SDS011;6680;53.220;10.402;2023-08-17T07:19:19;2.73;;;2.00;;
13228;SDS011;6680;53.220;10.402;2023-08-17T07:21:46;2.43;;;2.17;;
13228;SDS011;6680;53.220;10.402;2023-08-17T07:24:15;2.30;;;2.10;;
13228;SDS011;6680;53.220;10.402;2023-08-17T07:26:42;2.80;;;2.20;;
13228;SDS011;6680;53.220;10.402;2023-08-17T07:29:08;2.00;;;1.70;;
13228;SDS011;6680;53.220;10.402;2023-08-17T07:31:36;3.53;;;2.10;;
13228;SDS011;6680;53.220;10.402;2023-08-17T07:34:03;3.20;;;2.90;;
13228;SDS011;6680;53.220;10.402;2023-08-17T07:36:30;3.20;;;2.23;;
13228;SDS011;6680;53.220;10.402;2023-08-17T07:38:57;2.33;;;2.13;;
13228;SDS011;6680;53.220;10.402;2023-08-17T07:41:24;2.20;;;2.10;;
13228;SDS011;6680;53.220;10.402;2023-08-17T07:43:51;2.10;;;2.00;;
13228;SDS011;6680;53.220;10.402;2023-08-17T07:46:18;3.47;;;2.50;;
13228;SDS011;6680;53.220;10.402;2023-08-17T07:48:44;4.20;;;2.40;;
13228;SDS011;6680;53.220;10.402;2023-08-17T07:51:11;2.43;;;2.23;;
13228;SDS011;6680;53.220;10.402;2023-08-17T07:53:38;2.60;;;2.40;;
13228;SDS011;6680;53.220;10.402;2023-08-17T07:56:05;2.77;;;2.47;;
13228;SDS011;6680;53.220;10.402;2023-08-17T07:58:33;2.53;;;2.33;;
13228;SDS011;6680;53.220;10.402;2023-08-17T08:00:59;3.13;;;2.50;;
13228;SDS011;6680;53.220;10.402;2023-08-17T08:03:26;5.40;;;2.60;;
13228;SDS011;6680;53.220;10.402;2023-08-17T08:05:53;2.93;;;2.47;;
13228;SDS011;6680;53.220;10.402;2023-08-17T08:08:19;3.10;;;2.17;;
13228;SDS011;6680;53.220;10.402;2023-08-17T08:10:46;2.63;;;2.10;;
13228;SDS011;6680;53.220;10.402;2023-08-17T08:13:13;4.30;;;2.33;;
13228;SDS011;6680;53.220;10.402;2023-08-17T08:15:41;3.50;;;2.40;;
13228;SDS011;6680;53.220;10.402;2023-08-17T08:18:07;2.60;;;2.40;;
13228;SDS011;6680;53.220;10.402;2023-08-17T08:20:34;3.90;;;2.40;;
13228;SDS011;6680;53.220;10.402;2023-08-17T08:23:01;2.57;;;1.97;;
13228;SDS011;6680;53.220;10.402;2023-08-17T08:25:28;7.03;;;2.57;;
13228;SDS011;6680;53.220;10.402;2023-08-17T08:27:54;2.40;;;2.20;;
13228;SDS011;6680;53.220;10.402;2023-08-17T08:30:21;5.27;;;2.07;;
13228;SDS011;6680;53.220;10.402;2023-08-17T08:32:49;2.60;;;2.40;;
13228;SDS011;6680;53.220;10.402;2023-08-17T08:35:16;2.73;;;2.50;;
13228;SDS011;6680;53.220;10.402;2023-08-17T08:37:42;2.47;;;2.00;;
13228;SDS011;6680;53.220;10.402;2023-08-17T08:40:10;2.70;;;2.40;;
13228;SDS011;6680;53.220;10.402;2023-08-17T08:42:38;3.03;;;2.50;;
13228;SDS011;6680;53.220;10.402;2023-08-17T08:45:05;6.23;;;2.80;;
13228;SDS011;6680;53.220;10.402;2023-08-17T08:47:32;3.00;;;2.63;;
13228;SDS011;6680;53.220;10.402;2023-08-17T08:50:04;5.43;;;2.60;;
13228;SDS011;6680;53.220;10.402;2023-08-17T08:52:32;3.43;;;2.40;;
13228;SDS011;6680;53.220;10.402;2023-08-17T08:55:02;4.60;;;2.40;;
13228;SDS011;6680;53.220;10.402;2023-08-17T08:57:36;3.03;;;2.70;;
13228;SDS011;6680;53.220;10.402;2023-08-17T09:00:03;3.20;;;2.67;;
13228;SDS011;6680;53.220;10.402;2023-08-17T09:02:32;3.40;;;2.80;;
13228;SDS011;6680;53.220;10.402;2023-08-17T09:05:00;2.90;;;2.43;;
13228;SDS011;6680;53.220;10.402;2023-08-17T09:07:29;2.77;;;2.43;;
13228;SDS011;6680;53.220;10.402;2023-08-17T09:09:57;4.90;;;2.70;;
13228;SDS011;6680;53.220;10.402;2023-08-17T09:12:24;2.73;;;2.43;;
13228;SDS011;6680;53.220;10.402;2023-08-17T09:14:51;4.63;;;2.57;;
13228;SDS011;6680;53.220;10.402;2023-08-17T09:17:22;2.80;;;2.50;;
13228;SDS011;6680;53.220;10.402;2023-08-17T09:19:49;4.23;;;2.97;;
13228;SDS011;6680;53.220;10.402;2023-08-17T09:22:22;4.47;;;2.50;;
13228;SDS011;6680;53.220;10.402;2023-08-17T09:24:49;2.57;;;2.37;;
13228;SDS011;6680;53.220;10.402;2023-08-17T09:27:16;2.83;;;2.53;;
13228;SDS011;6680;53.220;10.402;2023-08-17T09:29:43;2.90;;;2.50;;
13228;SDS011;6680;53.220;10.402;2023-08-17T09:32:11;3.30;;;3.00;;
13228;SDS011;6680;53.220;10.402;2023-08-17T09:34:41;3.00;;;2.70;;
13228;SDS011;6680;53.220;10.402;2023-08-17T09:37:07;4.30;;;2.80;;
13228;SDS011;6680;53.220;10.402;2023-08-17T09:39:35;4.20;;;2.70;;
13228;SDS011;6680;53.220;10.402;2023-08-17T09:42:03;3.70;;;2.80;;
13228;SDS011;6680;53.220;10.402;2023-08-17T09:44:30;3.00;;;2.70;;
13228;SDS011;6680;53.220;10.402;2023-08-17T09:47:00;4.10;;;2.97;;
13228;SDS011;6680;53.220;10.402;2023-08-17T09:49:29;3.90;;;2.37;;
13228;SDS011;6680;53.220;10.402;2023-08-17T09:51:58;2.63;;;2.43;;
13228;SDS011;6680;53.220;10.402;2023-08-17T09:54:25;3.17;;;2.70;;
13228;SDS011;6680;53.220;10.402;2023-08-17T09:56:54;3.00;;;2.43;;
13228;SDS011;6680;53.220;10.402;2023-08-17T09:59:21;2.07;;;1.87;;
13228;SDS011;6680;53.220;10.402;2023-08-17T10:01:49;2.50;;;2.30;;
13228;SDS011;6680;53.220;10.402;2023-08-17T10:04:19;3.13;;;2.60;;
13228;SDS011;6680;53.220;10.402;2023-08-17T10:06:47;4.37;;;2.63;;
13228;SDS011;6680;53.220;10.402;2023-08-17T10:09:18;3.10;;;2.13;;
13228;SDS011;6680;53.220;10.402;2023-08-17T10:11:50;2.80;;;2.50;;
13228;SDS011;6680;53.220;10.402;2023-08-17T10:14:21;3.07;;;2.77;;
13228;SDS011;6680;53.220;10.402;2023-08-17T10:16:50;2.50;;;2.30;;
13228;SDS011;6680;53.220;10.402;2023-08-17T10:19:25;2.47;;;2.27;;
13228;SDS011;6680;53.220;10.402;2023-08-17T10:22:01;2.43;;;2.23;;
13228;SDS011;6680;53.220;10.402;2023-08-17T10:24:33;2.23;;;2.03;;
13228;SDS011;6680;53.220;10.402;2023-08-17T10:27:01;2.47;;;2.27;;
13228;SDS011;6680;53.220;10.402;2023-08-17T10:29:30;2.70;;;2.30;;
13228;SDS011;6680;53.220;10.402;2023-08-17T10:31:57;6.00;;;2.77;;
13228;SDS011;6680;53.220;10.402;2023-08-17T10:34:26;3.83;;;2.40;;
13228;SDS011;6680;53.220;10.402;2023-08-17T10:36:53;2.97;;;2.77;;
13228;SDS011;6680;53.220;10.402;2023-08-17T10:39:23;2.73;;;2.50;;
13228;SDS011;6680;53.220;10.402;2023-08-17T10:41:51;2.73;;;2.47;;
13228;SDS011;6680;53.220;10.402;2023-08-17T10:44:37;5.73;;;2.77;;
13228;SDS011;6680;53.220;10.402;2023-08-17T10:47:18;2.60;;;2.40;;
13228;SDS011;6680;53.220;10.402;2023-08-17T10:49:47;3.53;;;2.80;;
13228;SDS011;6680;53.220;10.402;2023-08-17T10:52:15;2.63;;;2.40;;
13228;SDS011;6680;53.220;10.402;2023-08-17T10:54:52;2.73;;;2.37;;
13228;SDS011;6680;53.220;10.402;2023-08-17T10:57:32;2.83;;;2.53;;
13228;SDS011;6680;53.220;10.402;2023-08-17T11:00:15;3.60;;;2.30;;
13228;SDS011;6680;53.220;10.402;2023-08-17T11:02:45;4.27;;;2.80;;
13228;SDS011;6680;53.220;10.402;2023-08-17T11:05:30;2.60;;;2.33;;
13228;SDS011;6680;53.220;10.402;2023-08-17T11:08:01;2.80;;;2.20;;
13228;SDS011;6680;53.220;10.402;2023-08-17T11:10:28;2.57;;;2.37;;
13228;SDS011;6680;53.220;10.402;2023-08-17T11:12:55;2.20;;;1.97;;
13228;SDS011;6680;53.220;10.402;2023-08-17T11:15:26;2.37;;;2.17;;
13228;SDS011;6680;53.220;10.402;2023-08-17T11:18:03;2.30;;;2.10;;
13228;SDS011;6680;53.220;10.402;2023-08-17T11:20:30;2.50;;;2.30;;
13228;SDS011;6680;53.220;10.402;2023-08-17T11:22:57;3.87;;;2.60;;
13228;SDS011;6680;53.220;10.402;2023-08-17T11:25:24;3.23;;;2.50;;
13228;SDS011;6680;53.220;10.402;2023-08-17T11:27:51;2.33;;;2.13;;
13228;SDS011;6680;53.220;10.402;2023-08-17T11:30:18;3.93;;;2.27;;
13228;SDS011;6680;53.220;10.402;2023-08-17T11:32:50;2.60;;;2.17;;
13228;SDS011;6680;53.220;10.402;2023-08-17T11:35:17;3.57;;;2.17;;
13228;SDS011;6680;53.220;10.402;2023-08-17T11:37:44;2.50;;;2.30;;
13228;SDS011;6680;53.220;10.402;2023-08-17T11:40:11;3.07;;;2.20;;
13228;SDS011;6680;53.220;10.402;2023-08-17T11:42:38;2.93;;;2.00;;
13228;SDS011;6680;53.220;10.402;2023-08-17T11:45:06;2.00;;;1.90;;
13228;SDS011;6680;53.220;10.402;2023-08-17T11:47:34;2.43;;;2.20;;
13228;SDS011;6680;53.220;10.402;2023-08-17T11:50:03;2.90;;;2.70;;
13228;SDS011;6680;53.220;10.402;2023-08-17T11:52:31;2.80;;;2.60;;
13228;SDS011;6680;53.220;10.402;2023-08-17T11:54:58;3.57;;;2.30;;
13228;SDS011;6680;53.220;10.402;2023-08-17T11:57:25;3.40;;;2.37;;
13228;SDS011;6680;53.220;10.402;2023-08-17T11:59:52;2.60;;;2.40;;
13228;SDS011;6680;53.220;10.402;2023-08-17T12:02:19;3.63;;;2.80;;
13228;SDS011;6680;53.220;10.402;2023-08-17T12:04:47;3.40;;;2.40;;
13228;SDS011;6680;53.220;10.402;2023-08-17T12:07:15;2.90;;;2.70;;
13228;SDS011;6680;53.220;10.402;2023-08-17T12:09:42;2.70;;;2.50;;
13228;SDS011;6680;53.220;10.402;2023-08-17T12:12:09;3.27;;;2.93;;
13228;SDS011;6680;53.220;10.402;2023-08-17T12:14:36;2.83;;;2.60;;
13228;SDS011;6680;53.220;10.402;2023-08-17T12:17:07;3.20;;;2.90;;
13228;SDS011;6680;53.220;10.402;2023-08-17T12:19:33;2.63;;;2.27;;
13228;SDS011;6680;53.220;10.402;2023-08-17T12:22:00;2.60;;;2.40;;
13228;SDS011;6680;53.220;10.402;2023-08-17T12:24:29;2.47;;;2.27;;
13228;SDS011;6680;53.220;10.402;2023-08-17T12:26:56;2.87;;;2.60;;
13228;SDS011;6680;53.220;10.402;2023-08-17T12:29:23;3.00;;;2.70;;
13228;SDS011;6680;53.220;10.402;2023-08-17T12:31:51;2.87;;;2.63;;
13228;SDS011;6680;53.220;10.402;2023-08-17T12:34:18;3.07;;;2.37;;
13228;SDS011;6680;53.220;10.402;2023-08-17T12:36:44;5.33;;;2.77;;
13228;SDS011;6680;53.220;10.402;2023-08-17T12:39:11;2.53;;;2.33;;
13228;SDS011;6680;53.220;10.402;2023-08-17T12:41:39;3.83;;;2.40;;
13228;SDS011;6680;53.220;10.402;2023-08-17T12:44:05;2.67;;;2.43;;
13228;SDS011;6680;53.220;10.402;2023-08-17T12:46:34;2.40;;;2.20;;
13228;SDS011;6680;53.220;10.402;2023-08-17T12:49:01;2.47;;;2.27;;
13228;SDS011;6680;53.220;10.402;2023-08-17T12:51:27;3.23;;;2.50;;
13228;SDS011;6680;53.220;10.402;2023-08-17T12:53:54;2.67;;;2.47;;
13228;SDS011;6680;53.220;10.402;2023-08-17T12:56:21;2.80;;;2.60;;
13228;SDS011;6680;53.220;10.402;2023-08-17T12:58:49;3.13;;;2.83;;
13228;SDS011;6680;53.220;10.402;2023-08-17T13:01:15;2.87;;;2.40;;
13228;SDS011;6680;53.220;10.402;2023-08-17T13:03:43;3.80;;;2.73;;
13228;SDS011;6680;53.220;10.402;2023-08-17T13:06:10;3.20;;;2.90;;
13228;SDS011;6680;53.220;10.402;2023-08-17T13:08:37;2.63;;;2.40;;
13228;SDS011;6680;53.220;10.402;2023-08-17T13:11:03;2.80;;;2.60;;
13228;SDS011;6680;53.220;10.402;2023-08-17T13:13:30;2.83;;;2.53;;
13228;SDS011;6680;53.220;10.402;2023-08-17T13:15:58;3.40;;;2.53;;
13228;SDS011;6680;53.220;10.402;2023-08-17T13:18:25;2.60;;;2.40;;
13228;SDS011;6680;53.220;10.402;2023-08-17T13:20:51;3.73;;;2.43;;
13228;SDS011;6680;53.220;10.402;2023-08-17T13:23:18;3.10;;;2.67;;
13228;SDS011;6680;53.220;10.402;2023-08-17T13:25:44;2.70;;;2.50;;
13228;SDS011;6680;53.220;10.402;2023-08-17T13:28:11;4.63;;;2.47;;
13228;SDS011;6680;53.220;10.402;2023-08-17T13:30:38;2.93;;;2.47;;
13228;SDS011;6680;53.220;10.402;2023-08-17T13:33:06;2.67;;;2.47;;
13228;SDS011;6680;53.220;10.402;2023-08-17T13:35:33;2.87;;;2.50;;
13228;SDS011;6680;53.220;10.402;2023-08-17T13:38:00;2.53;;;2.33;;
13228;SDS011;6680;53.220;10.402;2023-08-17T13:40:29;3.37;;;2.50;;
13228;SDS011;6680;53.220;10.402;2023-08-17T13:42:55;2.83;;;2.50;;
13228;SDS011;6680;53.220;10.402;2023-08-17T13:45:23;2.83;;;2.60;;
13228;SDS011;6680;53.220;10.402;2023-08-17T13:47:50;3.33;;;2.50;;
13228;SDS011;6680;53.220;10.402;2023-08-17T13:50:18;4.13;;;2.50;;
13228;SDS011;6680;53.220;10.402;2023-08-17T13:52:45;2.80;;;2.60;;
13228;SDS011;6680;53.220;10.402;2023-08-17T13:55:12;2.80;;;2.50;;
13228;SDS011;6680;53.220;10.402;2023-08-17T13:57:39;3.30;;;3.03;;
13228;SDS011;6680;53.220;10.402;2023-08-17T14:00:06;3.27;;;2.60;;
13228;SDS011;6680;53.220;10.402;2023-08-17T14:02:34;4.53;;;2.63;;
13228;SDS011;6680;53.220;10.402;2023-08-17T14:05:00;3.90;;;2.63;;
13228;SDS011;6680;53.220;10.402;2023-08-17T14:07:28;4.87;;;2.30;;
13228;SDS011;6680;53.220;10.402;2023-08-17T14:09:55;4.60;;;3.00;;
13228;SDS011;6680;53.220;10.402;2023-08-17T14:12:21;3.00;;;2.80;;
13228;SDS011;6680;53.220;10.402;2023-08-17T14:14:48;4.93;;;2.73;;
13228;SDS011;6680;53.220;10.402;2023-08-17T14:17:14;2.70;;;2.50;;
13228;SDS011;6680;53.220;10.402;2023-08-17T14:19:41;3.13;;;2.47;;
13228;SDS011;6680;53.220;10.402;2023-08-17T14:22:08;4.60;;;3.00;;
13228;SDS011;6680;53.220;10.402;2023-08-17T14:24:36;3.40;;;3.00;;
13228;SDS011;6680;53.220;10.402;2023-08-17T14:27:02;4.07;;;2.50;;
13228;SDS011;6680;53.220;10.402;2023-08-17T14:29:29;2.63;;;2.43;;
13228;SDS011;6680;53.220;10.402;2023-08-17T14:31:56;3.20;;;2.70;;
13228;SDS011;6680;53.220;10.402;2023-08-17T14:34:22;5.40;;;2.40;;
13228;SDS011;6680;53.220;10.402;2023-08-17T14:36:49;4.97;;;2.90;;
13228;SDS011;6680;53.220;10.402;2023-08-17T14:39:16;2.73;;;2.50;;
13228;SDS011;6680;53.220;10.402;2023-08-17T14:41:44;3.10;;;2.47;;
13228;SDS011;6680;53.220;10.402;2023-08-17T14:44:10;4.87;;;3.27;;
13228;SDS011;6680;53.220;10.402;2023-08-17T14:46:37;2.30;;;2.17;;
13228;SDS011;6680;53.220;10.402;2023-08-17T14:49:05;2.60;;;2.40;;
13228;SDS011;6680;53.220;10.402;2023-08-17T14:51:36;4.73;;;2.40;;